Goderich, Canada
Current Conditions -  °F | °C
As of 12:00 PM on Thursday 30 Oct 2014 (Local Time) from CYXU Reporting Station
Broken Clouds Broken Clouds  
Wind Chill: 41°   Ceiling: 3000
Heat Index: 45°   Visibility: 15mi
Dew Point: 37°   Wind: 6mph
Humidity: 76%   Direction: 310°NW
Pressure: 30.1"   Gusts: NA
Location:  43.74°N, 81.71°W
Report Text: CYXU 301600Z 31005KT 270V340 15SM BKN030 07/03 A3010 RMK SC7 CU ASOCTD SLP201
Loading
Personal Weather Stations






























Interactive Weather Map
Tropical Storm Tracking
New forecast layout! Learn more

10-Day Weather Forecast

Advertisements
Track Severe Weather on mobile